Time,TemperatureF,DewpointF,PressureIn,WindDirection,WindDirectionDegrees,WindSpeedMPH,WindSpeedGustMPH,Humidity,HourlyPrecipIn,Conditions,Clouds,dailyrainin,SoftwareType,DateUTC
2013-01-08 00:04:00,75.0,-99.9,30.13,East,89,18.0,20.0,-999,-99.99,,,-99.99,,2013-01-08 05:04:00,
2013-01-08 00:12:00,75.0,-99.9,30.12,East,82,17.0,19.0,-999,-99.99,,,-99.99,,2013-01-08 05:12:00,
2013-01-08 00:22:00,75.0,-99.9,30.12,East,83,16.0,19.0,-999,-99.99,,,-99.99,,2013-01-08 05:22:00,
2013-01-08 00:33:00,75.0,-99.9,30.12,East,84,14.0,16.0,-999,-99.99,,,-99.99,,2013-01-08 05:33:00,
2013-01-08 00:43:00,75.0,-99.9,30.12,East,83,14.0,17.0,-999,-99.99,,,-99.99,,2013-01-08 05:43:00,
2013-01-08 00:53:00,75.0,-99.9,30.12,ENE,76,13.0,15.0,-999,-99.99,,,-99.99,,2013-01-08 05:53:00,
2013-01-08 01:03:00,75.0,-99.9,30.12,East,90,14.0,17.0,-999,-99.99,,,-99.99,,2013-01-08 06:03:00,
2013-01-08 01:12:00,75.0,-99.9,30.12,East,79,15.0,18.0,-999,-99.99,,,-99.99,,2013-01-08 06:12:00,
2013-01-08 01:23:00,75.0,-99.9,30.12,ENE,77,14.0,18.0,-999,-99.99,,,-99.99,,2013-01-08 06:23:00,
2013-01-08 01:33:00,75.0,-99.9,30.12,East,83,14.0,17.0,-999,-99.99,,,-99.99,,2013-01-08 06:33:00,
2013-01-08 01:43:00,75.0,-99.9,30.11,East,95,16.0,19.0,-999,-99.99,,,-99.99,,2013-01-08 06:43:00,
2013-01-08 01:53:00,75.0,-99.9,30.11,East,91,16.0,19.0,-999,-99.99,,,-99.99,,2013-01-08 06:53:00,
2013-01-08 02:02:00,75.0,-99.9,30.11,East,89,18.0,20.0,-999,-99.99,,,-99.99,,2013-01-08 07:02:00,
2013-01-08 02:12:00,75.0,-99.9,30.11,East,84,18.0,21.0,-999,-99.99,,,-99.99,,2013-01-08 07:12:00,
2013-01-08 02:22:00,75.0,-99.9,30.11,East,82,18.0,20.0,-999,-99.99,,,-99.99,,2013-01-08 07:22:00,
2013-01-08 02:32:00,75.0,-99.9,30.10,East,86,18.0,20.0,-999,-99.99,,,-99.99,,2013-01-08 07:32:00,
2013-01-08 02:42:00,75.0,-99.9,30.10,East,88,18.0,21.0,-999,-99.99,,,-99.99,,2013-01-08 07:42:00,
2013-01-08 02:52:00,73.0,-99.9,30.10,SE,126,21.0,26.0,-999,-99.99,,,-99.99,,2013-01-08 07:52:00,
2013-01-08 03:02:00,72.0,-99.9,30.10,SE,130,17.0,21.0,-999,-99.99,,,-99.99,,2013-01-08 08:02:00,
2013-01-08 03:12:00,71.0,-99.9,30.10,ESE,117,16.0,18.0,-999,-99.99,,,-99.99,,2013-01-08 08:12:00,
2013-01-08 03:22:00,71.0,-99.9,30.10,ESE,104,10.0,17.0,-999,-99.99,,,-99.99,,2013-01-08 08:22:00,
2013-01-08 03:33:00,72.0,-99.9,30.10,East,90,11.0,12.0,-999,-99.99,,,-99.99,,2013-01-08 08:33:00,
2013-01-08 03:42:00,72.0,-99.9,30.10,East,80,9.0,11.0,-999,-99.99,,,-99.99,,2013-01-08 08:42:00,
2013-01-08 03:53:00,73.0,-99.9,30.10,East,98,9.0,12.0,-999,-99.99,,,-99.99,,2013-01-08 08:53:00,
2013-01-08 04:02:00,73.0,-99.9,30.10,East,92,10.0,13.0,-999,-99.99,,,-99.99,,2013-01-08 09:02:00,
2013-01-08 04:12:00,74.0,-99.9,30.09,East,87,11.0,12.0,-999,-99.99,,,-99.99,,2013-01-08 09:12:00,
2013-01-08 04:22:00,74.0,-99.9,30.09,East,87,11.0,12.0,-999,-99.99,,,-99.99,,2013-01-08 09:22:00,
2013-01-08 04:33:00,74.0,-99.9,30.09,East,94,16.0,19.0,-999,-99.99,,,-99.99,,2013-01-08 09:33:00,
2013-01-08 04:42:00,73.0,-99.9,30.09,East,90,16.0,17.0,-999,-99.99,,,-99.99,,2013-01-08 09:42:00,
2013-01-08 04:53:00,74.0,-99.9,30.09,East,95,15.0,17.0,-999,-99.99,,,-99.99,,2013-01-08 09:53:00,
2013-01-08 05:03:00,74.0,-99.9,30.09,East,86,13.0,16.0,-999,-99.99,,,-99.99,,2013-01-08 10:03:00,
2013-01-08 05:12:00,74.0,-99.9,30.09,East,94,14.0,17.0,-999,-99.99,,,-99.99,,2013-01-08 10:12:00,
2013-01-08 05:22:00,74.0,-99.9,30.10,East,93,14.0,16.0,-999,-99.99,,,-99.99,,2013-01-08 10:22:00,
2013-01-08 05:33:00,74.0,-99.9,30.10,East,92,13.0,16.0,-999,-99.99,,,-99.99,,2013-01-08 10:33:00,
2013-01-08 05:43:00,74.0,-99.9,30.10,East,86,14.0,16.0,-999,-99.99,,,-99.99,,2013-01-08 10:43:00,
2013-01-08 05:53:00,74.0,-99.9,30.10,East,86,12.0,14.0,-999,-99.99,,,-99.99,,2013-01-08 10:53:00,
2013-01-08 06:02:00,74.0,-99.9,30.11,East,86,13.0,14.0,-999,-99.99,,,-99.99,,2013-01-08 11:02:00,
2013-01-08 06:12:00,74.0,-99.9,30.12,East,82,10.0,13.0,-999,-99.99,,,-99.99,,2013-01-08 11:12:00,
2013-01-08 06:23:00,75.0,-99.9,30.12,East,90,10.0,13.0,-999,-99.99,,,-99.99,,2013-01-08 11:23:00,
2013-01-08 06:33:00,75.0,-99.9,30.12,East,85,10.0,12.0,-999,-99.99,,,-99.99,,2013-01-08 11:33:00,
2013-01-08 06:43:00,75.0,-99.9,30.12,East,88,12.0,13.0,-999,-99.99,,,-99.99,,2013-01-08 11:43:00,
2013-01-08 06:53:00,75.0,-99.9,30.13,East,84,10.0,13.0,-999,-99.99,,,-99.99,,2013-01-08 11:53:00,
2013-01-08 07:03:00,75.0,-99.9,30.13,East,90,10.0,12.0,-999,-99.99,,,-99.99,,2013-01-08 12:03:00,
2013-01-08 07:12:00,75.0,-99.9,30.14,East,96,9.0,11.0,-999,-99.99,,,-99.99,,2013-01-08 12:12:00,
2013-01-08 07:22:00,76.0,-99.9,30.14,East,101,9.0,10.0,-999,-99.99,,,-99.99,,2013-01-08 12:22:00,
2013-01-08 07:33:00,76.0,-99.9,30.14,ESE,102,7.0,8.0,-999,-99.99,,,-99.99,,2013-01-08 12:33:00,
2013-01-08 07:43:00,75.0,-99.9,30.15,SE,130,9.0,13.0,-999,-99.99,,,-99.99,,2013-01-08 12:43:00,
2013-01-08 07:53:00,75.0,-99.9,30.15,SE,127,10.0,14.0,-999,-99.99,,,-99.99,,2013-01-08 12:53:00,
2013-01-08 08:03:00,73.0,-99.9,30.16,SE,125,19.0,20.0,-999,-99.99,,,-99.99,,2013-01-08 13:03:00,
2013-01-08 08:13:00,73.0,-99.9,30.16,ESE,109,14.0,16.0,-999,-99.99,,,-99.99,,2013-01-08 13:13:00,
2013-01-08 08:22:00,72.0,-99.9,30.16,East,96,14.0,17.0,-999,-99.99,,,-99.99,,2013-01-08 13:22:00,
2013-01-08 08:33:00,73.0,-99.9,30.17,East,80,9.0,12.0,-999,-99.99,,,-99.99,,2013-01-08 13:33:00,
2013-01-08 08:43:00,74.0,-99.9,30.18,NE,52,8.0,12.0,-999,-99.99,,,-99.99,,2013-01-08 13:43:00,
2013-01-08 08:53:00,74.0,-99.9,30.18,NE,48,8.0,9.0,-999,-99.99,,,-99.99,,2013-01-08 13:53:00,
2013-01-08 09:03:00,74.0,-99.9,30.18,ENE,70,3.0,4.0,-999,-99.99,,,-99.99,,2013-01-08 14:03:00,
2013-01-08 09:13:00,75.0,-99.9,30.19,ENE,69,6.0,8.0,-999,-99.99,,,-99.99,,2013-01-08 14:13:00,
2013-01-08 09:23:00,75.0,-99.9,30.19,ENE,57,6.0,8.0,-999,-99.99,,,-99.99,,2013-01-08 14:23:00,
2013-01-08 09:33:00,76.0,-99.9,30.19,East,92,15.0,18.0,-999,-99.99,,,-99.99,,2013-01-08 14:33:00,
2013-01-08 09:43:00,76.0,-99.9,30.20,East,89,15.0,20.0,-999,-99.99,,,-99.99,,2013-01-08 14:43:00,
2013-01-08 09:53:00,76.0,-99.9,30.20,East,87,16.0,19.0,-999,-99.99,,,-99.99,,2013-01-08 14:53:00,
2013-01-08 10:03:00,76.0,-99.9,30.21,East,82,17.0,19.0,-999,-99.99,,,-99.99,,2013-01-08 15:03:00,
2013-01-08 10:12:00,76.0,-99.9,30.21,East,84,15.0,18.0,-999,-99.99,,,-99.99,,2013-01-08 15:12:00,
2013-01-08 10:23:00,76.0,-99.9,30.21,East,83,15.0,17.0,-999,-99.99,,,-99.99,,2013-01-08 15:23:00,
2013-01-08 10:33:00,76.0,-99.9,30.21,East,80,14.0,17.0,-999,-99.99,,,-99.99,,2013-01-08 15:33:00,
2013-01-08 10:43:00,76.0,-99.9,30.21,East,81,12.0,14.0,-999,-99.99,,,-99.99,,2013-01-08 15:43:00,
2013-01-08 10:53:00,75.0,-99.9,30.22,SE,142,9.0,15.0,-999,-99.99,,,-99.99,,2013-01-08 15:53:00,
2013-01-08 11:03:00,75.0,-99.9,30.21,SSE,163,6.0,9.0,-999,-99.99,,,-99.99,,2013-01-08 16:03:00,
2013-01-08 11:13:00,76.0,-99.9,30.21,SSE,157,6.0,11.0,-999,-99.99,,,-99.99,,2013-01-08 16:13:00,
2013-01-08 11:23:00,77.0,-99.9,30.21,SSE,165,12.0,14.0,-999,-99.99,,,-99.99,,2013-01-08 16:23:00,
2013-01-08 11:34:00,77.0,-99.9,30.20,SSE,149,11.0,15.0,-999,-99.99,,,-99.99,,2013-01-08 16:34:00,
2013-01-08 11:43:00,77.0,-99.9,30.20,SSE,149,11.0,13.0,-999,-99.99,,,-99.99,,2013-01-08 16:43:00,
2013-01-08 11:53:00,77.0,-99.9,30.20,SSE,147,10.0,13.0,-999,-99.99,,,-99.99,,2013-01-08 16:53:00,
2013-01-08 12:04:00,77.0,-99.9,30.19,SE,141,11.0,12.0,-999,-99.99,,,-99.99,,2013-01-08 17:04:00,
2013-01-08 12:13:00,77.0,-99.9,30.19,SE,141,12.0,13.0,-999,-99.99,,,-99.99,,2013-01-08 17:13:00,
2013-01-08 12:23:00,77.0,-99.9,30.19,SE,141,13.0,14.0,-999,-99.99,,,-99.99,,2013-01-08 17:23:00,
2013-01-08 12:34:00,77.0,-99.9,30.18,SE,134,13.0,15.0,-999,-99.99,,,-99.99,,2013-01-08 17:34:00,
2013-01-08 12:43:00,77.0,-99.9,30.18,SE,139,13.0,16.0,-999,-99.99,,,-99.99,,2013-01-08 17:43:00,
2013-01-08 12:54:00,77.0,-99.9,30.18,SE,140,14.0,15.0,-999,-99.99,,,-99.99,,2013-01-08 17:54:00,
2013-01-08 13:04:00,77.0,-99.9,30.17,SE,136,12.0,15.0,-999,-99.99,,,-99.99,,2013-01-08 18:04:00,
2013-01-08 13:13:00,77.0,-99.9,30.17,SE,130,12.0,14.0,-999,-99.99,,,-99.99,,2013-01-08 18:13:00,
2013-01-08 13:24:00,77.0,-99.9,30.16,SE,131,13.0,15.0,-999,-99.99,,,-99.99,,2013-01-08 18:24:00,
2013-01-08 13:33:00,77.0,-99.9,30.16,SE,135,14.0,15.0,-999,-99.99,,,-99.99,,2013-01-08 18:33:00,
2013-01-08 13:43:00,77.0,-99.9,30.16,SE,131,15.0,17.0,-999,-99.99,,,-99.99,,2013-01-08 18:43:00,
2013-01-08 13:53:00,77.0,-99.9,30.16,SE,134,14.0,17.0,-999,-99.99,,,-99.99,,2013-01-08 18:53:00,
2013-01-08 14:03:00,77.0,-99.9,30.15,SE,129,14.0,17.0,-999,-99.99,,,-99.99,,2013-01-08 19:03:00,
2013-01-08 14:12:00,77.0,-99.9,30.15,SE,129,15.0,18.0,-999,-99.99,,,-99.99,,2013-01-08 19:12:00,
2013-01-08 14:23:00,77.0,-99.9,30.15,SE,130,14.0,16.0,-999,-99.99,,,-99.99,,2013-01-08 19:23:00,
2013-01-08 14:33:00,77.0,-99.9,30.15,SE,125,15.0,17.0,-999,-99.99,,,-99.99,,2013-01-08 19:33:00,
2013-01-08 14:43:00,77.0,-99.9,30.15,SE,127,14.0,16.0,-999,-99.99,,,-99.99,,2013-01-08 19:43:00,
2013-01-08 14:53:00,77.0,-99.9,30.15,SE,132,14.0,16.0,-999,-99.99,,,-99.99,,2013-01-08 19:53:00,
2013-01-08 15:03:00,77.0,-99.9,30.15,SE,129,14.0,17.0,-999,-99.99,,,-99.99,,2013-01-08 20:03:00,
2013-01-08 15:12:00,77.0,-99.9,30.15,SE,133,15.0,17.0,-999,-99.99,,,-99.99,,2013-01-08 20:12:00,
2013-01-08 15:23:00,77.0,-99.9,30.15,SE,136,14.0,16.0,-999,-99.99,,,-99.99,,2013-01-08 20:23:00,
2013-01-08 15:33:00,77.0,-99.9,30.14,SE,131,14.0,16.0,-999,-99.99,,,-99.99,,2013-01-08 20:33:00,
2013-01-08 15:43:00,77.0,-99.9,30.15,SE,131,13.0,16.0,-999,-99.99,,,-99.99,,2013-01-08 20:43:00,
2013-01-08 15:54:00,77.0,-99.9,30.15,SE,127,14.0,16.0,-999,-99.99,,,-99.99,,2013-01-08 20:54:00,
2013-01-08 16:03:00,77.0,-99.9,30.15,SE,127,13.0,15.0,-999,-99.99,,,-99.99,,2013-01-08 21:03:00,
2013-01-08 16:13:00,77.0,-99.9,30.15,SE,125,13.0,16.0,-999,-99.99,,,-99.99,,2013-01-08 21:13:00,
2013-01-08 16:23:00,77.0,-99.9,30.15,ESE,122,14.0,16.0,-999,-99.99,,,-99.99,,2013-01-08 21:23:00,
2013-01-08 16:33:00,77.0,-99.9,30.15,ESE,123,14.0,15.0,-999,-99.99,,,-99.99,,2013-01-08 21:33:00,
2013-01-08 16:43:00,77.0,-99.9,30.15,SE,125,14.0,16.0,-999,-99.99,,,-99.99,,2013-01-08 21:43:00,
2013-01-08 16:53:00,77.0,-99.9,30.15,SE,124,14.0,16.0,-999,-99.99,,,-99.99,,2013-01-08 21:53:00,
2013-01-08 17:04:00,77.0,-99.9,30.15,ESE,120,14.0,16.0,-999,-99.99,,,-99.99,,2013-01-08 22:04:00,
2013-01-08 17:13:00,77.0,-99.9,30.15,ESE,123,15.0,17.0,-999,-99.99,,,-99.99,,2013-01-08 22:13:00,
2013-01-08 17:23:00,77.0,-99.9,30.16,ESE,119,15.0,17.0,-999,-99.99,,,-99.99,,2013-01-08 22:23:00,
2013-01-08 17:33:00,77.0,-99.9,30.16,ESE,122,14.0,16.0,-999,-99.99,,,-99.99,,2013-01-08 22:33:00,
2013-01-08 17:43:00,77.0,-99.9,30.16,ESE,118,14.0,16.0,-999,-99.99,,,-99.99,,2013-01-08 22:43:00,
2013-01-08 17:53:00,77.0,-99.9,30.16,ESE,117,14.0,16.0,-999,-99.99,,,-99.99,,2013-01-08 22:53:00,
2013-01-08 18:03:00,77.0,-99.9,30.17,ESE,115,13.0,16.0,-999,-99.99,,,-99.99,,2013-01-08 23:03:00,
2013-01-08 18:13:00,77.0,-99.9,30.17,ESE,115,14.0,15.0,-999,-99.99,,,-99.99,,2013-01-08 23:13:00,
2013-01-08 18:23:00,77.0,-99.9,30.17,ESE,113,12.0,15.0,-999,-99.99,,,-99.99,,2013-01-08 23:23:00,
2013-01-08 18:33:00,77.0,-99.9,30.17,ESE,115,14.0,15.0,-999,-99.99,,,-99.99,,2013-01-08 23:33:00,
2013-01-08 18:43:00,77.0,-99.9,30.17,ESE,115,14.0,17.0,-999,-99.99,,,-99.99,,2013-01-08 23:43:00,
2013-01-08 18:53:00,77.0,-99.9,30.17,ESE,111,14.0,15.0,-999,-99.99,,,-99.99,,2013-01-08 23:53:00,
2013-01-08 19:03:00,77.0,-99.9,30.17,ESE,111,15.0,17.0,-999,-99.99,,,-99.99,,2013-01-09 00:03:00,
2013-01-08 19:13:00,77.0,-99.9,30.17,ESE,105,15.0,16.0,-999,-99.99,,,-99.99,,2013-01-09 00:13:00,
2013-01-08 19:23:00,77.0,-99.9,30.17,ESE,111,16.0,17.0,-999,-99.99,,,-99.99,,2013-01-09 00:23:00,
2013-01-08 19:33:00,77.0,-99.9,30.17,ESE,107,15.0,17.0,-999,-99.99,,,-99.99,,2013-01-09 00:33:00,
2013-01-08 19:43:00,77.0,-99.9,30.17,ESE,106,14.0,16.0,-999,-99.99,,,-99.99,,2013-01-09 00:43:00,
2013-01-08 19:53:00,77.0,-99.9,30.17,ESE,107,14.0,16.0,-999,-99.99,,,-99.99,,2013-01-09 00:53:00,
2013-01-08 20:03:00,77.0,-99.9,30.18,ESE,108,15.0,19.0,-999,-99.99,,,-99.99,,2013-01-09 01:03:00,
2013-01-08 20:12:00,77.0,-99.9,30.18,ESE,107,15.0,17.0,-999,-99.99,,,-99.99,,2013-01-09 01:12:00,
2013-01-08 20:22:00,77.0,-99.9,30.18,ESE,104,16.0,18.0,-999,-99.99,,,-99.99,,2013-01-09 01:22:00,
2013-01-08 20:33:00,77.0,-99.9,30.18,ESE,103,17.0,19.0,-999,-99.99,,,-99.99,,2013-01-09 01:33:00,
2013-01-08 20:43:00,77.0,-99.9,30.18,East,99,16.0,19.0,-999,-99.99,,,-99.99,,2013-01-09 01:43:00,
2013-01-08 20:53:00,77.0,-99.9,30.18,ESE,106,17.0,21.0,-999,-99.99,,,-99.99,,2013-01-09 01:53:00,
2013-01-08 21:02:00,77.0,-99.9,30.18,ESE,104,18.0,20.0,-999,-99.99,,,-99.99,,2013-01-09 02:02:00,
2013-01-08 21:12:00,77.0,-99.9,30.18,ESE,108,17.0,19.0,-999,-99.99,,,-99.99,,2013-01-09 02:12:00,
2013-01-08 21:23:00,77.0,-99.9,30.18,ESE,109,16.0,19.0,-999,-99.99,,,-99.99,,2013-01-09 02:23:00,
2013-01-08 21:33:00,77.0,-99.9,30.18,ESE,113,19.0,22.0,-999,-99.99,,,-99.99,,2013-01-09 02:33:00,
2013-01-08 21:43:00,77.0,-99.9,30.17,ESE,109,21.0,23.0,-999,-99.99,,,-99.99,,2013-01-09 02:43:00,
2013-01-08 21:53:00,77.0,-99.9,30.18,ESE,113,20.0,25.0,-999,-99.99,,,-99.99,,2013-01-09 02:53:00,
2013-01-08 22:03:00,77.0,-99.9,30.18,ESE,115,21.0,23.0,-999,-99.99,,,-99.99,,2013-01-09 03:03:00,
2013-01-08 22:12:00,77.0,-99.9,30.18,ESE,111,19.0,21.0,-999,-99.99,,,-99.99,,2013-01-09 03:12:00,
2013-01-08 22:22:00,77.0,-99.9,30.18,ESE,108,19.0,22.0,-999,-99.99,,,-99.99,,2013-01-09 03:22:00,
2013-01-08 22:33:00,77.0,-99.9,30.18,ESE,109,18.0,21.0,-999,-99.99,,,-99.99,,2013-01-09 03:33:00,
2013-01-08 22:43:00,77.0,-99.9,30.18,ESE,106,17.0,21.0,-999,-99.99,,,-99.99,,2013-01-09 03:43:00,
2013-01-08 22:53:00,77.0,-99.9,30.18,ESE,112,17.0,21.0,-999,-99.99,,,-99.99,,2013-01-09 03:53:00,
2013-01-08 23:02:00,77.0,-99.9,30.18,ESE,112,17.0,20.0,-999,-99.99,,,-99.99,,2013-01-09 04:02:00,
2013-01-08 23:12:00,77.0,-99.9,30.18,ESE,116,18.0,22.0,-999,-99.99,,,-99.99,,2013-01-09 04:12:00,
2013-01-08 23:23:00,77.0,-99.9,30.18,ESE,110,17.0,20.0,-999,-99.99,,,-99.99,,2013-01-09 04:23:00,
2013-01-08 23:33:00,77.0,-99.9,30.18,ESE,112,19.0,22.0,-999,-99.99,,,-99.99,,2013-01-09 04:33:00,
2013-01-08 23:43:00,77.0,-99.9,30.18,ESE,115,19.0,21.0,-999,-99.99,,,-99.99,,2013-01-09 04:43:00,
2013-01-08 23:53:00,77.0,-99.9,30.18,SE,124,19.0,23.0,-999,-99.99,,,-99.99,,2013-01-09 04:53:00,